Time;durP1;ratioP1;P1;durP2;ratioP2;P2;SDS_P1;SDS_P2;PMS_P1;PMS_P2;Temp;Humidity;BMP_temperature;BMP_pressure;BME280_temperature;BME280_humidity;BME280_pressure;Samples;Min_cycle;Max_cycle;Signal;HPM_P1;HPM_P2
2021/11/24 00:00:55;;;;;;;48.83;19.02;;;6.20;99.90;;;;;;4871817;29;20190;-87
2021/11/24 00:03:21;;;;;;;185.05;26.70;;;6.20;99.90;;;;;;4904582;28;20081;-87
2021/11/24 00:05:47;;;;;;;39.10;17.60;;;6.30;99.90;;;;;;4893866;28;20281;-87
2021/11/24 00:08:13;;;;;;;52.67;20.90;;;6.30;99.90;;;;;;4895633;28;20376;-87
2021/11/24 00:10:39;;;;;;;34.85;18.23;;;6.30;99.90;;;;;;4897717;28;20194;-88
2021/11/24 00:13:08;;;;;;;43.95;20.17;;;6.30;99.90;;;;;;4909433;29;20043;-87
2021/11/24 00:15:34;;;;;;;84.15;19.58;;;6.30;99.90;;;;;;4892103;28;20136;-87
2021/11/24 00:18:00;;;;;;;89.63;20.60;;;6.30;99.90;;;;;;4904941;28;20035;-88
2021/11/24 00:20:27;;;;;;;84.68;20.92;;;6.20;99.90;;;;;;4923870;29;20066;-87
2021/11/24 00:23:02;;;;;;;67.72;19.92;;;6.20;99.90;;;;;;4874239;28;20184;-87
2021/11/24 00:25:34;;;;;;;143.32;21.30;;;6.20;99.90;;;;;;4903851;28;20048;-87
2021/11/24 00:28:19;;;;;;;;;;;;;;;;;;;;;
2021/11/24 00:30:47;;;;;;;30.17;15.43;;;6.10;99.90;;;;;;4946840;28;20038;-88
2021/11/24 00:33:13;;;;;;;43.92;15.93;;;6.10;99.90;;;;;;4928502;28;20039;-87
2021/11/24 00:35:39;;;;;;;27.15;14.35;;;6.00;99.90;;;;;;4903973;29;20122;-88
2021/11/24 00:38:05;;;;;;;248.10;22.02;;;6.00;99.90;;;;;;4911824;29;20118;-87
2021/11/24 00:40:31;;;;;;;121.07;19.27;;;6.00;99.90;;;;;;4886379;29;22111;-87
2021/11/24 00:42:57;;;;;;;60.75;16.60;;;6.00;99.90;;;;;;4904679;28;20102;-87
2021/11/24 00:45:23;;;;;;;257.23;22.10;;;6.00;99.90;;;;;;4894144;29;20055;-87
2021/11/24 00:47:50;;;;;;;134.00;18.75;;;6.00;99.90;;;;;;4906847;28;20405;-87
2021/11/24 00:50:19;;;;;;;42.30;18.88;;;6.00;99.90;;;;;;4888884;28;20067;-87
2021/11/24 00:52:51;;;;;;;29.20;16.75;;;6.00;99.90;;;;;;4901341;29;21223;-87
2021/11/24 00:55:22;;;;;;;39.45;19.85;;;6.00;99.90;;;;;;4905504;28;20059;-88
2021/11/24 00:57:48;;;;;;;37.83;18.77;;;6.00;99.90;;;;;;4905627;28;20043;-88
2021/11/24 01:00:17;;;;;;;30.33;17.92;;;6.00;99.90;;;;;;4886117;28;20394;-88
2021/11/24 01:02:43;;;;;;;35.78;19.48;;;6.10;99.90;;;;;;4893275;29;20114;-89
2021/11/24 01:05:13;;;;;;;36.13;20.08;;;6.10;99.90;;;;;;4904347;29;20442;-88
2021/11/24 01:08:11;;;;;;;31.50;18.55;;;6.10;99.90;;;;;;4912047;28;20043;-87
2021/11/24 01:10:39;;;;;;;35.03;18.23;;;6.20;99.90;;;;;;4920614;28;20035;-87
2021/11/24 01:13:05;;;;;;;39.63;19.95;;;6.10;99.90;;;;;;4905660;28;20510;-88
2021/11/24 01:15:31;;;;;;;36.47;18.40;;;6.10;99.90;;;;;;4905864;28;20038;-87
2021/11/24 01:17:57;;;;;;;33.08;18.15;;;6.10;99.90;;;;;;4902915;28;20050;-87
2021/11/24 01:20:23;;;;;;;31.42;18.35;;;6.20;99.90;;;;;;4889832;29;20446;-88
2021/11/24 01:22:49;;;;;;;46.05;21.10;;;6.20;99.90;;;;;;4882582;29;20434;-87
2021/11/24 01:25:15;;;;;;;48.00;21.25;;;6.20;99.90;;;;;;4903041;28;20348;-87
2021/11/24 01:27:42;;;;;;;27.75;17.27;;;6.20;99.90;;;;;;4874758;28;20165;-87
2021/11/24 01:30:09;;;;;;;34.92;19.48;;;6.20;99.90;;;;;;4918212;29;20403;-87
2021/11/24 01:32:37;;;;;;;38.70;19.55;;;6.20;99.90;;;;;;4906263;28;20427;-87
2021/11/24 01:35:05;;;;;;;30.20;19.48;;;6.20;99.90;;;;;;4909420;28;20090;-87
2021/11/24 01:40:38;;;;;;;28.98;17.17;;;6.30;99.90;;;;;;4893331;28;20047;-87
2021/11/24 01:43:16;;;;;;;37.83;20.17;;;6.30;99.90;;;;;;4888854;28;20047;-87
2021/11/24 01:45:45;;;;;;;29.23;19.48;;;6.30;99.90;;;;;;4901526;28;20044;-88
2021/11/24 01:48:14;;;;;;;42.47;22.87;;;6.20;99.90;;;;;;4907357;28;20541;-87
2021/11/24 01:50:40;;;;;;;38.28;21.90;;;6.20;99.90;;;;;;4903113;28;20054;-87
2021/11/24 01:53:09;;;;;;;37.35;20.33;;;6.30;99.90;;;;;;4903731;28;20039;-87
2021/11/24 01:55:43;;;;;;;33.88;20.95;;;6.20;99.90;;;;;;4887202;28;20078;-87
2021/11/24 01:58:12;;;;;;;40.65;20.38;;;6.30;99.90;;;;;;4901167;28;20043;-87
2021/11/24 02:00:39;;;;;;;43.97;20.70;;;6.30;99.90;;;;;;4883345;28;20039;-87
2021/11/24 02:03:05;;;;;;;40.88;21.63;;;6.30;99.90;;;;;;4885918;29;20055;-87
2021/11/24 02:05:33;;;;;;;34.15;20.20;;;6.30;99.90;;;;;;4913202;28;20475;-87
2021/11/24 02:07:59;;;;;;;46.03;23.20;;;6.30;99.90;;;;;;4886041;28;20040;-87
2021/11/24 02:10:28;;;;;;;39.97;22.73;;;6.30;99.90;;;;;;4890371;28;20035;-88
2021/11/24 02:12:59;;;;;;;29.08;19.45;;;6.30;99.90;;;;;;4917052;28;20038;-86
2021/11/24 02:15:26;;;;;;;33.65;21.75;;;6.30;99.90;;;;;;4883897;29;20039;-86
2021/11/24 02:17:52;;;;;;;38.08;20.90;;;6.30;99.90;;;;;;4904978;29;20046;-86
2021/11/24 02:20:41;;;;;;;29.55;20.63;;;6.30;99.90;;;;;;4903548;29;20113;-86
2021/11/24 02:23:09;;;;;;;36.10;20.98;;;6.30;99.90;;;;;;4921095;29;20043;-86
2021/11/24 02:25:36;;;;;;;44.45;21.83;;;6.30;99.90;;;;;;4896625;28;20066;-86
2021/11/24 02:28:03;;;;;;;35.67;18.67;;;6.30;99.90;;;;;;4903294;28;20047;-86
2021/11/24 02:30:29;;;;;;;35.20;19.85;;;6.30;99.90;;;;;;4916838;28;20039;-86
2021/11/24 02:32:55;;;;;;;35.85;20.63;;;6.30;99.90;;;;;;4907310;28;20063;-86
2021/11/24 02:35:21;;;;;;;31.65;20.15;;;6.30;99.90;;;;;;4903687;29;20360;-86
2021/11/24 02:37:47;;;;;;;32.15;20.52;;;6.40;99.90;;;;;;4899235;28;20135;-87
2021/11/24 02:40:16;;;;;;;33.55;22.10;;;6.40;99.90;;;;;;4902897;29;20042;-86
2021/11/24 02:42:45;;;;;;;31.40;20.42;;;6.40;99.90;;;;;;4926327;29;20081;-86
2021/11/24 02:45:11;;;;;;;33.65;20.92;;;6.40;99.90;;;;;;4890675;29;20119;-86
2021/11/24 02:47:38;;;;;;;42.25;21.88;;;6.40;99.90;;;;;;4918943;28;20035;-86
2021/11/24 02:50:04;;;;;;;28.45;19.60;;;6.40;99.90;;;;;;4906967;28;20071;-86
2021/11/24 02:52:31;;;;;;;34.72;21.30;;;6.40;99.90;;;;;;4917141;28;20039;-86
2021/11/24 02:55:01;;;;;;;35.30;20.92;;;6.30;99.90;;;;;;4885016;29;20533;-86
2021/11/24 02:57:38;;;;;;;39.03;22.70;;;6.40;99.90;;;;;;4909262;29;20433;-85
2021/11/24 03:00:25;;;;;;;46.90;22.45;;;6.40;99.90;;;;;;4910307;28;20050;-85
2021/11/24 03:02:51;;;;;;;40.63;21.42;;;6.40;99.90;;;;;;4906729;29;20050;-85
2021/11/24 03:05:23;;;;;;;37.53;21.67;;;6.40;99.90;;;;;;4923082;29;20039;-85
2021/11/24 03:07:50;;;;;;;40.60;22.38;;;6.40;99.90;;;;;;4925386;29;20126;-86
2021/11/24 03:10:17;;;;;;;35.85;20.35;;;6.40;99.90;;;;;;4910519;29;20502;-86
2021/11/24 03:12:46;;;;;;;37.15;21.13;;;6.40;99.90;;;;;;4919404;29;20066;-86
2021/11/24 03:15:15;;;;;;;35.05;20.52;;;6.40;99.90;;;;;;4927269;28;20050;-88
2021/11/24 03:17:41;;;;;;;26.20;17.98;;;6.40;99.90;;;;;;4931988;29;20051;-87
2021/11/24 03:20:10;;;;;;;33.70;19.77;;;6.40;99.90;;;;;;4911880;29;20055;-86
2021/11/24 03:22:45;;;;;;;26.85;17.15;;;6.40;99.90;;;;;;4903580;28;20043;-86
2021/11/24 03:25:14;;;;;;;29.00;17.42;;;6.40;99.90;;;;;;4893357;28;20047;-86
2021/11/24 03:27:53;;;;;;;24.33;16.38;;;6.50;99.90;;;;;;4917383;28;20050;-86
2021/11/24 03:30:25;;;;;;;30.15;16.95;;;6.40;99.90;;;;;;4918409;28;20498;-86
2021/11/24 03:32:52;;;;;;;26.67;16.77;;;6.40;99.90;;;;;;4908708;28;20036;-86
2021/11/24 03:35:29;;;;;;;26.92;15.60;;;6.40;99.90;;;;;;4888119;28;20045;-86
2021/11/24 03:37:55;;;;;;;26.05;16.58;;;6.40;99.90;;;;;;4905491;28;20043;-86
2021/11/24 03:40:25;;;;;;;26.48;15.60;;;6.40;99.90;;;;;;4904883;28;20086;-87
2021/11/24 03:43:04;;;;;;;;;;;;;;;;;;;;;
2021/11/24 03:45:34;;;;;;;21.17;15.23;;;6.40;99.90;;;;;;4903711;28;20074;-86
2021/11/24 03:48:01;;;;;;;27.88;15.98;;;6.40;99.90;;;;;;4909708;28;20399;-86
2021/11/24 03:50:27;;;;;;;27.80;16.38;;;6.40;99.90;;;;;;4908536;28;20478;-86
2021/11/24 03:52:54;;;;;;;20.95;15.05;;;6.40;99.90;;;;;;4926959;28;20047;-86
2021/11/24 03:55:20;;;;;;;24.23;15.00;;;6.40;99.90;;;;;;4904578;28;20513;-86
2021/11/24 03:57:46;;;;;;;27.27;15.10;;;6.50;99.90;;;;;;4896352;28;20039;-85
2021/11/24 04:00:18;;;;;;;22.48;14.38;;;6.50;99.90;;;;;;4903656;29;20038;-86
2021/11/24 04:02:44;;;;;;;24.35;15.40;;;6.40;99.90;;;;;;4906884;29;20050;-86
2021/11/24 04:05:10;;;;;;;23.10;15.38;;;6.40;99.90;;;;;;4905827;29;20354;-86
2021/11/24 04:07:36;;;;;;;20.17;14.52;;;6.40;99.90;;;;;;4886624;28;20050;-86
2021/11/24 04:10:05;;;;;;;21.88;14.18;;;6.50;99.90;;;;;;4901914;29;20043;-86
2021/11/24 04:12:31;;;;;;;16.25;12.65;;;6.50;99.90;;;;;;4911256;28;20043;-86
2021/11/24 04:15:00;;;;;;;21.95;12.02;;;6.40;99.90;;;;;;4896242;29;20042;-86
2021/11/24 04:17:25;;;;;;;22.67;14.52;;;6.40;99.90;;;;;;4903085;28;20054;-86
2021/11/24 04:19:51;;;;;;;19.67;13.55;;;6.40;99.90;;;;;;4909154;29;20043;-86
2021/11/24 04:22:19;;;;;;;18.02;13.55;;;6.40;99.90;;;;;;4888541;28;20050;-86
2021/11/24 04:24:45;;;;;;;19.35;12.52;;;6.50;99.90;;;;;;4903427;28;20051;-85
2021/11/24 04:27:11;;;;;;;19.08;13.00;;;6.50;99.90;;;;;;4901030;28;20046;-86
2021/11/24 04:29:37;;;;;;;19.20;13.13;;;6.50;99.90;;;;;;4888087;28;20106;-86
2021/11/24 04:32:03;;;;;;;23.00;13.30;;;6.50;99.90;;;;;;4920739;28;20050;-86
2021/11/24 04:34:30;;;;;;;21.95;13.43;;;6.50;99.90;;;;;;4868885;28;20077;-86
2021/11/24 04:36:56;;;;;;;25.55;13.98;;;6.50;99.90;;;;;;4903777;29;20058;-87
2021/11/24 04:39:22;;;;;;;24.20;14.15;;;6.50;99.90;;;;;;4917957;28;20050;-85
2021/11/24 04:41:56;;;;;;;18.83;12.48;;;6.50;99.90;;;;;;4885129;28;20188;-86
2021/11/24 04:44:25;;;;;;;20.70;13.05;;;6.40;99.90;;;;;;4904220;28;20055;-86
2021/11/24 04:46:51;;;;;;;20.13;12.32;;;6.50;99.90;;;;;;4891937;28;20039;-86
2021/11/24 04:49:17;;;;;;;19.17;11.73;;;6.50;99.90;;;;;;4902588;29;20179;-85
2021/11/24 04:51:43;;;;;;;19.20;11.80;;;6.50;99.90;;;;;;4900885;28;20039;-85
2021/11/24 04:54:09;;;;;;;16.10;11.80;;;6.50;99.90;;;;;;4903332;29;20051;-86
2021/11/24 04:57:08;;;;;;;22.23;12.63;;;6.50;99.90;;;;;;4886511;28;20330;-86
2021/11/24 04:59:42;;;;;;;19.80;12.23;;;6.50;99.90;;;;;;4850555;29;20044;-85
2021/11/24 05:02:56;;;;;;;20.58;12.35;;;6.40;99.90;;;;;;4903922;28;20043;-85
2021/11/24 05:05:26;;;;;;;20.92;13.57;;;6.50;99.90;;;;;;4906090;28;20039;-86
2021/11/24 05:07:52;;;;;;;19.13;13.63;;;6.50;99.90;;;;;;4898715;29;20499;-86
2021/11/24 05:10:26;;;;;;;22.40;13.65;;;6.40;99.90;;;;;;4886914;29;20043;-86
2021/11/24 05:12:52;;;;;;;19.65;12.63;;;6.40;99.90;;;;;;4901966;29;20418;-86
2021/11/24 05:15:28;;;;;;;26.20;14.13;;;6.50;99.90;;;;;;4896550;28;20047;-86
2021/11/24 05:18:05;;;;;;;21.75;13.57;;;6.40;99.90;;;;;;4889482;29;20486;-86
2021/11/24 05:20:33;;;;;;;25.30;12.48;;;6.40;99.90;;;;;;4905114;28;20051;-86
2021/11/24 05:23:07;;;;;;;15.95;12.02;;;6.40;99.90;;;;;;4902294;28;20389;-86
2021/11/24 05:25:37;;;;;;;22.52;13.43;;;6.40;99.90;;;;;;4886912;28;20040;-85
2021/11/24 05:28:06;;;;;;;20.65;13.00;;;6.40;99.90;;;;;;4906504;29;20050;-86
2021/11/24 05:30:32;;;;;;;22.02;13.80;;;6.40;99.90;;;;;;4909322;28;20058;-86
2021/11/24 05:32:58;;;;;;;23.05;13.27;;;6.50;99.90;;;;;;4918887;28;20038;-84
2021/11/24 05:35:28;;;;;;;24.42;14.23;;;6.40;99.90;;;;;;4901588;29;20079;-86
2021/11/24 05:37:54;;;;;;;17.50;12.73;;;6.50;99.90;;;;;;4888950;28;20174;-85
2021/11/24 05:40:21;;;;;;;16.95;12.57;;;6.40;99.90;;;;;;4913103;28;20036;-85
2021/11/24 05:42:49;;;;;;;18.45;11.70;;;6.50;99.90;;;;;;4901344;28;20563;-85
2021/11/24 05:45:27;;;;;;;17.80;12.35;;;6.40;99.90;;;;;;4887364;28;20040;-85
2021/11/24 05:48:03;;;;;;;17.33;12.00;;;6.40;99.90;;;;;;4887462;29;20043;-86
2021/11/24 05:50:30;;;;;;;17.80;12.07;;;6.40;99.90;;;;;;4918674;28;20102;-85
2021/11/24 05:53:19;;;;;;;19.13;13.23;;;6.40;99.90;;;;;;4902597;28;20473;-85
2021/11/24 05:55:50;;;;;;;16.33;10.90;;;6.40;99.90;;;;;;4898493;28;20055;-85
2021/11/24 05:58:21;;;;;;;21.67;12.25;;;6.40;99.90;;;;;;4896389;28;20042;-85
2021/11/24 06:00:52;;;;;;;16.83;11.95;;;6.40;99.90;;;;;;4921961;28;20040;-86
2021/11/24 06:03:18;;;;;;;19.15;11.88;;;6.50;99.90;;;;;;4914187;28;20058;-85
2021/11/24 06:05:45;;;;;;;21.33;11.75;;;6.40;99.90;;;;;;4876524;29;20390;-84
2021/11/24 06:08:20;;;;;;;17.90;12.40;;;6.40;99.90;;;;;;4883051;28;20309;-86
2021/11/24 06:10:49;;;;;;;21.17;12.80;;;6.40;99.90;;;;;;4901694;28;20530;-86
2021/11/24 06:13:15;;;;;;;14.70;10.48;;;6.40;99.90;;;;;;4896866;28;20062;-84
2021/11/24 06:16:04;;;;;;;15.25;9.65;;;6.50;99.90;;;;;;4899216;29;20035;-84
2021/11/24 06:18:35;;;;;;;17.52;12.00;;;6.50;99.90;;;;;;4917773;28;20092;-85
2021/11/24 06:21:01;;;;;;;15.68;10.98;;;6.40;99.90;;;;;;4910678;28;20047;-85
2021/11/24 06:23:27;;;;;;;18.77;11.27;;;6.40;99.90;;;;;;4893420;28;20043;-84
2021/11/24 06:26:01;;;;;;;22.25;12.27;;;6.40;99.90;;;;;;4873363;28;20038;-86
2021/11/24 06:28:30;;;;;;;21.98;13.27;;;6.50;99.90;;;;;;4908572;28;20046;-86
2021/11/24 06:30:58;;;;;;;15.27;11.30;;;6.40;99.90;;;;;;4909295;29;20131;-86
2021/11/24 06:33:29;;;;;;;18.58;12.15;;;6.40;99.90;;;;;;4922378;28;20082;-86
2021/11/24 06:35:55;;;;;;;19.05;12.07;;;6.50;99.90;;;;;;4891077;28;21545;-86
2021/11/24 06:38:22;;;;;;;18.40;10.95;;;6.40;99.90;;;;;;4905394;28;20407;-84
2021/11/24 06:40:51;;;;;;;18.45;11.40;;;6.40;99.90;;;;;;4897055;28;20051;-85
2021/11/24 06:43:17;;;;;;;21.70;9.40;;;6.40;99.90;;;;;;4907769;28;20043;-84
2021/11/24 06:45:46;;;;;;;16.60;10.38;;;6.40;99.90;;;;;;4905468;29;20054;-84
2021/11/24 06:48:20;;;;;;;19.00;11.77;;;6.40;99.90;;;;;;4870500;29;20040;-85
2021/11/24 06:50:48;;;;;;;14.90;10.23;;;6.50;99.90;;;;;;4900591;29;20035;-84
2021/11/24 06:53:14;;;;;;;16.27;11.20;;;6.40;99.90;;;;;;4886161;29;20054;-84
2021/11/24 06:55:46;;;;;;;23.23;12.43;;;6.40;99.90;;;;;;4902383;29;20094;-85
2021/11/24 06:58:12;;;;;;;15.98;10.75;;;6.40;99.90;;;;;;4895793;28;20051;-85
2021/11/24 07:00:45;;;;;;;14.32;10.73;;;6.50;99.90;;;;;;4876538;28;20371;-86
2021/11/24 07:03:11;;;;;;;15.85;11.65;;;6.40;99.90;;;;;;4906423;28;20082;-86
2021/11/24 07:05:37;;;;;;;14.80;10.13;;;6.40;99.90;;;;;;4890959;28;20063;-85
2021/11/24 07:08:27;;;;;;;14.65;9.75;;;6.50;99.90;;;;;;4908976;28;20604;-86
2021/11/24 07:10:53;;;;;;;13.00;9.23;;;6.40;99.90;;;;;;4931606;28;20634;-85
2021/11/24 07:13:19;;;;;;;14.02;9.23;;;6.50;99.90;;;;;;4908437;28;20435;-84
2021/11/24 07:15:45;;;;;;;13.65;8.50;;;6.40;99.90;;;;;;4901921;28;20042;-84
2021/11/24 07:18:14;;;;;;;11.65;7.45;;;6.50;99.90;;;;;;4932050;29;20383;-84
2021/11/24 07:20:40;;;;;;;10.63;8.52;;;6.40;99.90;;;;;;4875119;28;20085;-85
2021/11/24 07:23:06;;;;;;;13.98;8.70;;;6.50;99.90;;;;;;4909357;28;20044;-85
2021/11/24 07:25:32;;;;;;;19.60;11.00;;;6.50;99.90;;;;;;4914272;28;20106;-84
2021/11/24 07:27:58;;;;;;;16.98;9.90;;;6.50;99.90;;;;;;4911814;28;20043;-85
2021/11/24 07:30:29;;;;;;;13.40;9.65;;;6.50;99.90;;;;;;4908674;29;20071;-86
2021/11/24 07:32:56;;;;;;;12.65;8.90;;;6.50;99.90;;;;;;4909954;29;20114;-84
2021/11/24 07:35:24;;;;;;;12.90;9.77;;;6.50;99.90;;;;;;4908993;28;20047;-84
2021/11/24 07:37:50;;;;;;;13.95;8.90;;;6.50;99.90;;;;;;4887230;28;20043;-85
2021/11/24 07:40:16;;;;;;;10.68;8.38;;;6.50;99.90;;;;;;4880113;28;20043;-85
2021/11/24 07:42:43;;;;;;;14.25;8.68;;;6.50;99.90;;;;;;4888194;28;20071;-84
2021/11/24 07:45:09;;;;;;;12.48;7.75;;;6.50;99.90;;;;;;4893293;28;20471;-85
2021/11/24 07:47:35;;;;;;;13.38;7.68;;;6.50;99.90;;;;;;4894051;28;20051;-85
2021/11/24 07:50:01;;;;;;;11.95;6.88;;;6.50;99.90;;;;;;4911446;28;20031;-85
2021/11/24 07:52:27;;;;;;;12.40;7.60;;;6.50;99.90;;;;;;4890412;28;20484;-85
2021/11/24 07:54:53;;;;;;;11.60;7.43;;;6.50;99.90;;;;;;4891599;28;20054;-85
2021/11/24 07:57:36;;;;;;;;;;;;;;;;;;;;;
2021/11/24 08:00:14;;;;;;;13.25;7.13;;;6.50;99.90;;;;;;4911899;28;20054;-85
2021/11/24 08:02:52;;;;;;;8.40;6.43;;;6.50;99.90;;;;;;4896162;29;20075;-85
2021/11/24 08:05:18;;;;;;;11.35;7.05;;;6.50;99.90;;;;;;4906899;28;20499;-85
2021/11/24 08:07:44;;;;;;;10.55;7.05;;;6.50;99.90;;;;;;4929116;28;20046;-85
2021/11/24 08:10:20;;;;;;;15.07;7.68;;;6.50;99.90;;;;;;4888356;28;20042;-84
2021/11/24 08:12:46;;;;;;;13.48;7.05;;;6.50;99.90;;;;;;4922969;29;20043;-84
2021/11/24 08:15:12;;;;;;;10.55;6.20;;;6.50;99.90;;;;;;4894001;28;20051;-84
2021/11/24 08:17:38;;;;;;;10.98;7.30;;;6.50;99.90;;;;;;4907629;28;20039;-85
2021/11/24 08:20:05;;;;;;;11.85;6.38;;;6.60;99.90;;;;;;4910338;29;20062;-84
2021/11/24 08:22:30;;;;;;;10.27;6.13;;;6.50;99.90;;;;;;4891574;28;20072;-85
2021/11/24 08:25:01;;;;;;;8.48;5.70;;;6.60;99.90;;;;;;4910338;29;20486;-84
2021/11/24 08:27:29;;;;;;;11.38;5.68;;;6.60;99.90;;;;;;4915024;29;20044;-84
2021/11/24 08:29:54;;;;;;;7.60;5.35;;;6.60;99.90;;;;;;4904691;29;20059;-84
2021/11/24 08:32:20;;;;;;;9.75;5.82;;;6.60;99.90;;;;;;4886590;28;20118;-84
2021/11/24 08:34:46;;;;;;;8.82;5.55;;;6.60;99.90;;;;;;4911932;28;20233;-84
2021/11/24 08:37:12;;;;;;;13.00;7.18;;;6.70;99.90;;;;;;4901070;29;20099;-85
2021/11/24 08:39:37;;;;;;;14.55;5.97;;;6.70;99.90;;;;;;4885422;28;20070;-83
2021/11/24 08:42:04;;;;;;;10.93;6.60;;;6.70;99.90;;;;;;4904229;29;20035;-84
2021/11/24 08:44:30;;;;;;;10.73;5.32;;;6.70;99.90;;;;;;4940283;28;20227;-84
2021/11/24 08:46:56;;;;;;;7.40;5.70;;;6.70;99.90;;;;;;4890329;28;20051;-86
2021/11/24 08:49:22;;;;;;;8.15;6.57;;;6.70;99.90;;;;;;4904154;28;20051;-86
2021/11/24 08:51:48;;;;;;;9.95;6.72;;;6.70;99.90;;;;;;4896797;28;20047;-86
2021/11/24 08:54:17;;;;;;;9.57;6.85;;;6.80;99.90;;;;;;4890936;29;20266;-85
2021/11/24 08:56:45;;;;;;;9.57;6.07;;;6.80;99.90;;;;;;4873198;29;20043;-87
2021/11/24 08:59:23;;;;;;;8.23;5.88;;;6.80;99.90;;;;;;4895365;29;20040;-85
2021/11/24 09:01:49;;;;;;;6.93;5.53;;;6.90;99.90;;;;;;4919988;29;20043;-85
2021/11/24 09:04:15;;;;;;;8.73;6.25;;;6.80;99.90;;;;;;4893772;29;20047;-84
2021/11/24 09:06:47;;;;;;;11.02;5.60;;;6.90;99.90;;;;;;4892461;28;20067;-86
2021/11/24 09:09:35;;;;;;;7.07;5.75;;;6.90;99.90;;;;;;4905879;28;20040;-85
2021/11/24 09:12:20;;;;;;;12.75;5.72;;;6.90;99.90;;;;;;4894145;28;20502;-86
2021/11/24 09:14:46;;;;;;;10.05;6.55;;;6.90;99.90;;;;;;4908877;28;20054;-84
2021/11/24 09:17:24;;;;;;;6.72;5.22;;;6.90;99.90;;;;;;4927370;28;20944;-85
2021/11/24 09:20:17;;;;;;;10.77;5.75;;;7.00;99.90;;;;;;4919167;28;20047;-86
2021/11/24 09:23:05;;;;;;;7.40;5.57;;;7.00;99.90;;;;;;4893486;28;20074;-88
2021/11/24 09:25:41;;;;;;;12.95;6.85;;;7.10;99.90;;;;;;4919912;28;20472;-84
2021/11/24 09:28:10;;;;;;;6.70;5.82;;;7.10;99.90;;;;;;4902150;28;20047;-86
2021/11/24 09:30:37;;;;;;;9.02;5.07;;;7.10;99.90;;;;;;4909158;28;20031;-85
2021/11/24 09:33:12;;;;;;;8.65;5.15;;;7.10;99.90;;;;;;4887006;28;20067;-85
2021/11/24 09:35:57;;;;;;;9.02;5.10;;;7.10;99.90;;;;;;4905385;28;20098;-84
2021/11/24 09:38:31;;;;;;;8.38;5.45;;;7.10;99.90;;;;;;4900035;29;20039;-85
2021/11/24 09:41:13;;;;;;;11.15;6.45;;;7.20;99.90;;;;;;4899910;28;20054;-86
2021/11/24 09:43:52;;;;;;;7.80;6.22;;;7.20;99.90;;;;;;4898818;28;20490;-86
2021/11/24 09:46:18;;;;;;;6.22;5.43;;;7.20;99.90;;;;;;4892451;28;20542;-86
2021/11/24 09:48:45;;;;;;;8.02;6.10;;;7.20;99.90;;;;;;4897439;28;20178;-86
2021/11/24 09:51:13;;;;;;;9.32;5.65;;;7.20;99.90;;;;;;4883571;29;20046;-85
2021/11/24 09:54:28;;;;;;;6.72;5.22;;;7.30;99.90;;;;;;4907506;28;20094;-86
2021/11/24 09:56:57;;;;;;;7.18;5.75;;;7.30;99.90;;;;;;4913080;28;22003;-85
2021/11/24 09:59:26;;;;;;;11.13;5.78;;;7.30;99.90;;;;;;4905172;28;20065;-85
2021/11/24 10:01:55;;;;;;;9.13;5.45;;;7.30;99.90;;;;;;4923645;28;20079;-85
2021/11/24 10:04:38;;;;;;;10.65;6.07;;;7.40;99.90;;;;;;4867913;28;20052;-86
2021/11/24 10:07:23;;;;;;;5.50;4.95;;;7.40;99.90;;;;;;4903980;29;20049;-86
2021/11/24 10:10:00;;;;;;;7.38;5.70;;;7.40;99.90;;;;;;4916789;23;20140;-87
2021/11/24 10:15:44;;;;;;;6.35;4.93;;;7.50;99.90;;;;;;4939938;28;20490;-85
2021/11/24 10:18:29;;;;;;;17.05;6.72;;;7.50;99.90;;;;;;4942166;28;20127;-85
2021/11/24 10:21:15;;;;;;;12.10;6.45;;;7.50;99.90;;;;;;4952806;28;20137;-85
2021/11/24 10:27:37;;;;;;;9.13;7.15;;;7.60;99.90;;;;;;4957737;28;20046;-86
2021/11/24 10:30:04;;;;;;;15.63;8.48;;;7.60;99.90;;;;;;4933714;28;20208;-84
2021/11/24 10:32:30;;;;;;;10.43;7.57;;;7.60;99.90;;;;;;4934991;28;20493;-84
2021/11/24 10:35:12;;;;;;;8.55;7.60;;;7.60;99.90;;;;;;4922486;28;20034;-87
2021/11/24 10:38:13;;;;;;;9.13;7.82;;;7.70;99.90;;;;;;4936233;28;20040;-84
2021/11/24 10:40:49;;;;;;;12.70;8.43;;;7.70;99.90;;;;;;4919440;28;20363;-86
2021/11/24 10:43:21;;;;;;;15.25;8.98;;;7.70;99.90;;;;;;4933672;28;20386;-85
2021/11/24 10:49:49;;;;;;;11.15;8.65;;;7.70;99.90;;;;;;4950022;28;20034;-86
2021/11/24 10:52:37;;;;;;;13.73;8.70;;;7.70;99.90;;;;;;4933238;28;20039;-85
2021/11/24 10:55:56;;;;;;;9.45;8.02;;;7.70;99.90;;;;;;4942599;28;20155;-87
2021/11/24 10:58:27;;;;;;;13.55;9.13;;;7.80;99.90;;;;;;4909083;28;20497;-86
2021/11/24 11:01:02;;;;;;;14.07;8.70;;;7.80;99.90;;;;;;4910054;28;20438;-86
2021/11/24 11:03:44;;;;;;;11.35;8.32;;;7.80;99.90;;;;;;4917413;28;20043;-87
2021/11/24 11:06:31;;;;;;;10.00;7.38;;;7.80;99.90;;;;;;4929302;28;20062;-85
2021/11/24 11:09:00;;;;;;;9.35;6.82;;;7.90;99.90;;;;;;4912213;28;20468;-87
2021/11/24 11:11:32;;;;;;;11.98;7.97;;;7.80;99.90;;;;;;4919758;28;20098;-86
2021/11/24 11:14:32;;;;;;;14.45;8.10;;;7.80;99.90;;;;;;4938199;28;20049;-87
2021/11/24 11:17:46;;;;;;;12.20;8.02;;;7.80;99.90;;;;;;4927661;28;20049;-86
2021/11/24 11:20:12;;;;;;;8.80;6.65;;;7.80;99.90;;;;;;4948811;28;20053;-86
2021/11/24 11:22:38;;;;;;;10.68;7.50;;;7.80;99.90;;;;;;4928786;28;20042;-86
2021/11/24 11:25:07;;;;;;;8.13;6.85;;;7.80;99.90;;;;;;4899525;28;20039;-87
2021/11/24 11:27:44;;;;;;;10.90;7.55;;;7.80;99.90;;;;;;4908258;28;20039;-86
2021/11/24 11:30:12;;;;;;;10.88;7.75;;;7.80;99.90;;;;;;4975653;23;20062;-86
2021/11/24 11:32:39;;;;;;;12.10;7.78;;;7.90;99.90;;;;;;4959278;28;20410;-86
2021/11/24 11:35:10;;;;;;;11.57;7.32;;;7.80;99.90;;;;;;4947988;28;20085;-86
2021/11/24 11:37:36;;;;;;;10.38;8.23;;;7.90;99.90;;;;;;4941110;28;20051;-85
2021/11/24 11:41:05;;;;;;;9.93;7.85;;;7.80;99.90;;;;;;5109164;23;20408;-86
2021/11/24 11:43:51;;;;;;;8.82;7.18;;;7.90;99.90;;;;;;4865234;28;20130;-87
2021/11/24 11:46:54;;;;;;;10.45;6.50;;;7.80;99.90;;;;;;4931673;28;20053;-87
2021/11/24 11:49:42;;;;;;;8.02;6.38;;;7.90;99.90;;;;;;4902525;28;20478;-86
2021/11/24 11:52:10;;;;;;;11.02;6.60;;;7.90;99.90;;;;;;4910089;28;20050;-86
2021/11/24 11:54:36;;;;;;;11.35;6.75;;;7.80;99.90;;;;;;4927728;28;20287;-86
2021/11/24 11:57:14;;;;;;;8.32;6.63;;;7.80;99.90;;;;;;4908451;28;20309;-86
2021/11/24 12:00:09;;;;;;;9.77;6.75;;;7.80;99.90;;;;;;4906023;28;20047;-86
2021/11/24 12:06:33;;;;;;;8.75;5.97;;;7.90;99.90;;;;;;4872217;29;20055;-87
2021/11/24 12:09:35;;;;;;;10.55;7.15;;;7.80;99.90;;;;;;4849882;29;21103;-85
2021/11/24 12:12:01;;;;;;;10.02;7.03;;;7.90;99.90;;;;;;4880804;28;20051;-85
2021/11/24 12:14:59;;;;;;;11.00;6.65;;;7.80;99.90;;;;;;4898730;28;20452;-85
2021/11/24 12:17:32;;;;;;;10.00;5.82;;;7.80;99.90;;;;;;4904497;28;20133;-88
2021/11/24 12:20:10;;;;;;;8.57;6.80;;;7.90;99.90;;;;;;4912021;28;20050;-85
2021/11/24 12:22:53;;;;;;;7.57;5.57;;;7.90;99.90;;;;;;4897413;28;20057;-82
2021/11/24 12:27:54;;;;;;;11.10;5.82;;;7.90;99.90;;;;;;4911533;28;20050;-84
2021/11/24 12:33:29;;;;;;;10.98;6.07;;;7.90;99.90;;;;;;4919345;28;20439;-84
2021/11/24 12:36:00;;;;;;;12.35;5.40;;;7.90;99.90;;;;;;4896183;28;20069;-85
2021/11/24 12:39:15;;;;;;;9.98;6.15;;;7.90;99.90;;;;;;4921877;28;20510;-86
2021/11/24 12:41:56;;;;;;;7.65;5.05;;;7.80;99.90;;;;;;4897431;29;20067;-86
2021/11/24 12:44:52;;;;;;;6.60;5.25;;;7.80;99.90;;;;;;4890345;29;20077;-85
2021/11/24 12:47:30;;;;;;;9.68;6.45;;;7.80;99.90;;;;;;4923021;28;20100;-85
2021/11/24 12:50:15;;;;;;;7.82;5.40;;;7.80;99.90;;;;;;4964288;28;20038;-86
2021/11/24 12:52:56;;;;;;;8.55;5.35;;;7.80;99.90;;;;;;4945384;28;20043;-85
2021/11/24 12:56:12;;;;;;;7.18;5.68;;;7.80;99.90;;;;;;4933708;28;20843;-86
2021/11/24 12:59:20;;;;;;;8.98;5.85;;;7.80;99.90;;;;;;4887731;28;20055;-86
2021/11/24 13:02:00;;;;;;;9.75;5.30;;;7.80;99.90;;;;;;4896833;28;20243;-88
2021/11/24 13:05:00;;;;;;;7.35;5.55;;;7.90;99.90;;;;;;4922123;28;20055;-86
2021/11/24 13:07:30;;;;;;;9.50;5.80;;;7.80;99.90;;;;;;4923386;28;20126;-85
2021/11/24 13:10:35;;;;;;;10.17;5.37;;;7.80;99.90;;;;;;4898347;28;20043;-88
2021/11/24 13:13:30;;;;;;;6.68;5.18;;;7.80;99.90;;;;;;4881122;28;20058;-87
2021/11/24 13:16:00;;;;;;;8.07;5.45;;;7.80;99.90;;;;;;4897410;28;20054;-86
2021/11/24 13:18:26;;;;;;;7.55;5.43;;;7.80;99.90;;;;;;4886637;28;20042;-85
2021/11/24 13:21:01;;;;;;;6.60;4.90;;;7.80;99.90;;;;;;4920150;28;20038;-85
2021/11/24 13:24:28;;;;;;;8.65;5.30;;;7.80;99.90;;;;;;4905540;28;20051;-85
2021/11/24 13:27:11;;;;;;;4.55;3.78;;;7.80;99.90;;;;;;4914008;28;20046;-84
2021/11/24 13:29:38;;;;;;;5.82;4.53;;;7.80;99.90;;;;;;4909742;28;20129;-86
2021/11/24 13:32:13;;;;;;;5.47;4.40;;;7.80;99.90;;;;;;4914336;28;20043;-86
2021/11/24 13:34:42;;;;;;;5.60;4.50;;;7.80;99.90;;;;;;4916329;28;20118;-84
2021/11/24 13:37:30;;;;;;;8.20;4.90;;;7.80;99.90;;;;;;4899814;28;20629;-86
2021/11/24 13:40:09;;;;;;;9.63;5.25;;;7.80;99.90;;;;;;4906558;28;20046;-87